Time;durP1;ratioP1;P1;durP2;ratioP2;P2;SDS_P1;SDS_P2;PMS_P1;PMS_P2;Temp;Humidity;BMP_temperature;BMP_pressure;BME280_temperature;BME280_humidity;BME280_pressure;Samples;Min_cycle;Max_cycle;Signal;HPM_P1;HPM_P2
2023/05/17 00:01:41;;;;;;;1.50;1.40;;;9.20;99.90;;;;;;5072900;28;20782;-71
2023/05/17 00:04:07;;;;;;;2.83;1.47;;;9.20;99.90;;;;;;5055504;28;20181;-71
2023/05/17 00:06:33;;;;;;;4.37;1.43;;;9.10;99.90;;;;;;5072998;28;20213;-71
2023/05/17 00:08:59;;;;;;;1.50;1.20;;;9.10;99.90;;;;;;5072435;28;20189;-71
2023/05/17 00:11:25;;;;;;;3.10;1.40;;;9.00;99.90;;;;;;5072254;28;20517;-69
2023/05/17 00:13:50;;;;;;;1.37;1.20;;;9.00;99.90;;;;;;5075489;28;20190;-69
2023/05/17 00:16:16;;;;;;;1.73;1.10;;;8.90;99.90;;;;;;5075686;28;20214;-68
2023/05/17 00:18:41;;;;;;;2.73;1.47;;;8.90;99.90;;;;;;5073821;28;20651;-69
2023/05/17 00:21:07;;;;;;;2.80;1.73;;;8.90;99.90;;;;;;5080021;28;20163;-69
2023/05/17 00:23:33;;;;;;;2.60;1.53;;;8.90;99.90;;;;;;5074319;28;20197;-69
2023/05/17 00:25:59;;;;;;;2.70;1.67;;;8.90;99.90;;;;;;5072629;28;20205;-69
2023/05/17 00:28:24;;;;;;;1.80;1.30;;;8.90;99.90;;;;;;5072081;28;20428;-69
2023/05/17 00:30:50;;;;;;;1.97;1.43;;;8.90;99.90;;;;;;5072149;28;20212;-69
2023/05/17 00:33:15;;;;;;;3.87;1.50;;;8.90;99.90;;;;;;5072407;28;20224;-68
2023/05/17 00:35:41;;;;;;;3.37;1.60;;;9.00;99.90;;;;;;5072385;28;20242;-69
2023/05/17 00:38:06;;;;;;;3.17;1.23;;;9.00;99.90;;;;;;5078670;28;20749;-69
2023/05/17 00:40:32;;;;;;;2.60;1.50;;;9.00;99.90;;;;;;5074911;28;20209;-69
2023/05/17 00:42:57;;;;;;;3.73;1.63;;;9.00;99.90;;;;;;5072184;28;20208;-68
2023/05/17 00:45:23;;;;;;;3.13;1.63;;;9.10;99.90;;;;;;5072241;28;20158;-68
2023/05/17 00:47:48;;;;;;;1.83;1.53;;;9.10;99.90;;;;;;5072144;28;20721;-68
2023/05/17 00:50:14;;;;;;;2.00;1.73;;;9.30;99.90;;;;;;5073886;28;20179;-69
2023/05/17 00:52:40;;;;;;;3.77;1.80;;;9.30;99.90;;;;;;5072302;28;20170;-69
2023/05/17 00:55:06;;;;;;;2.80;1.73;;;9.40;99.90;;;;;;5072292;28;20173;-71
2023/05/17 00:57:31;;;;;;;4.00;2.03;;;9.40;99.90;;;;;;5075521;28;20196;-69
2023/05/17 00:59:57;;;;;;;2.87;2.00;;;9.40;99.90;;;;;;5077198;28;20445;-69
2023/05/17 01:02:23;;;;;;;1.73;1.63;;;9.40;99.90;;;;;;5072178;28;20163;-68
2023/05/17 01:04:49;;;;;;;3.70;2.23;;;9.30;99.90;;;;;;5072013;28;20419;-69
2023/05/17 01:07:16;;;;;;;6.23;2.60;;;9.30;99.90;;;;;;5053843;28;20429;-69
2023/05/17 01:09:42;;;;;;;2.40;2.00;;;9.30;99.90;;;;;;5072326;28;20769;-69
2023/05/17 01:12:24;;;;;;;4.90;2.10;;;9.30;99.90;;;;;;5072093;28;20808;-69
2023/05/17 01:15:17;;;;;;;2.13;1.80;;;9.30;99.90;;;;;;5072105;28;20439;-69
2023/05/17 01:18:20;;;;;;;3.30;2.10;;;9.20;99.90;;;;;;5071780;28;20431;-69
2023/05/17 01:20:47;;;;;;;4.63;2.37;;;9.20;99.90;;;;;;5072812;28;20837;-69
2023/05/17 01:23:43;;;;;;;2.43;1.80;;;9.20;99.90;;;;;;5078926;28;20392;-69
2023/05/17 01:26:39;;;;;;;3.03;1.63;;;9.10;99.90;;;;;;5078541;28;20400;-69
2023/05/17 01:29:08;;;;;;;5.87;2.03;;;9.00;99.90;;;;;;5070109;28;20420;-69
2023/05/17 01:31:38;;;;;;;3.27;2.37;;;9.00;99.90;;;;;;5060591;28;20400;-69
2023/05/17 01:34:07;;;;;;;2.60;2.07;;;9.00;99.90;;;;;;5078745;28;20825;-69
2023/05/17 01:36:33;;;;;;;3.93;2.83;;;9.00;99.90;;;;;;5078519;28;20427;-69
2023/05/17 01:39:00;;;;;;;2.73;2.27;;;9.00;99.90;;;;;;5078415;28;20817;-68
2023/05/17 01:41:32;;;;;;;4.73;3.00;;;9.00;99.90;;;;;;5078722;28;20445;-69
2023/05/17 01:44:03;;;;;;;4.27;2.50;;;8.90;99.90;;;;;;5078700;28;20445;-69
2023/05/17 01:46:31;;;;;;;2.90;2.27;;;9.00;99.90;;;;;;5078482;28;20519;-69
2023/05/17 01:49:29;;;;;;;7.03;3.00;;;8.90;99.90;;;;;;5078677;28;20396;-69
2023/05/17 01:52:01;;;;;;;4.73;2.53;;;8.90;99.90;;;;;;5078931;28;20428;-69
2023/05/17 01:54:31;;;;;;;4.10;2.70;;;8.90;99.90;;;;;;5078387;28;20815;-69
2023/05/17 01:57:03;;;;;;;5.33;2.20;;;8.90;99.90;;;;;;5078033;28;20450;-69
2023/05/17 01:59:30;;;;;;;4.70;2.40;;;8.90;99.90;;;;;;5060588;28;20976;-69
2023/05/17 02:02:04;;;;;;;6.97;2.50;;;8.90;99.90;;;;;;5078609;28;20973;-69
2023/05/17 02:04:30;;;;;;;4.10;2.67;;;8.90;99.90;;;;;;5078575;28;20403;-69
2023/05/17 02:06:56;;;;;;;6.50;2.60;;;8.90;99.90;;;;;;5078422;28;20416;-69
2023/05/17 02:09:21;;;;;;;3.37;2.70;;;8.90;99.90;;;;;;5060588;28;20466;-69
2023/05/17 02:11:47;;;;;;;4.10;2.57;;;8.90;99.90;;;;;;5078396;28;20170;-69
2023/05/17 02:14:12;;;;;;;4.03;2.40;;;8.90;99.90;;;;;;5078395;28;20181;-69
2023/05/17 02:16:38;;;;;;;2.20;1.80;;;8.90;99.90;;;;;;5078338;28;20201;-69
2023/05/17 02:19:04;;;;;;;3.20;2.43;;;8.90;99.90;;;;;;5078265;28;20194;-69
2023/05/17 02:21:29;;;;;;;4.47;2.07;;;8.80;99.90;;;;;;5078521;28;20516;-69
2023/05/17 02:23:55;;;;;;;1.73;1.63;;;8.80;99.90;;;;;;5078307;28;20174;-69
2023/05/17 02:26:20;;;;;;;3.40;2.67;;;8.80;99.90;;;;;;5078342;28;20174;-69
2023/05/17 02:28:46;;;;;;;4.90;2.33;;;8.80;99.90;;;;;;5078042;28;20401;-69
2023/05/17 02:31:11;;;;;;;4.90;3.00;;;8.80;99.90;;;;;;5078424;28;20162;-69
2023/05/17 02:33:37;;;;;;;6.13;2.83;;;8.80;99.90;;;;;;5075218;28;20651;-69
2023/05/17 02:36:03;;;;;;;3.80;2.40;;;8.80;99.90;;;;;;5075046;28;20166;-69
2023/05/17 02:38:29;;;;;;;5.17;2.60;;;8.80;99.90;;;;;;5074622;28;20190;-69
2023/05/17 02:40:54;;;;;;;6.80;3.40;;;8.70;99.90;;;;;;5075004;28;20616;-70
2023/05/17 02:43:20;;;;;;;3.13;2.23;;;8.70;99.90;;;;;;5074962;28;20628;-69
2023/05/17 02:45:45;;;;;;;5.90;1.83;;;8.70;99.90;;;;;;5074843;28;20181;-69
2023/05/17 02:48:11;;;;;;;3.87;2.10;;;8.70;99.90;;;;;;5074797;28;20186;-69
2023/05/17 02:50:37;;;;;;;5.77;2.70;;;8.70;99.90;;;;;;5074991;28;20585;-69
2023/05/17 02:53:02;;;;;;;5.73;2.80;;;8.70;99.90;;;;;;5075101;28;20650;-69
2023/05/17 02:55:28;;;;;;;3.27;2.20;;;8.70;99.90;;;;;;5074933;28;20193;-69
2023/05/17 02:57:53;;;;;;;4.80;2.23;;;8.70;99.90;;;;;;5056606;28;20221;-69
2023/05/17 03:00:19;;;;;;;4.67;2.00;;;8.70;99.90;;;;;;5074831;28;20671;-69
2023/05/17 03:02:44;;;;;;;3.73;2.77;;;8.60;99.90;;;;;;5074975;28;20201;-69
2023/05/17 03:05:10;;;;;;;7.43;2.97;;;8.60;99.90;;;;;;5056847;28;20167;-69
2023/05/17 03:07:35;;;;;;;3.57;1.90;;;8.60;99.90;;;;;;5074048;28;20197;-69
2023/05/17 03:10:01;;;;;;;3.40;2.47;;;8.60;99.90;;;;;;5056778;28;20181;-69
2023/05/17 03:12:26;;;;;;;8.10;3.40;;;8.60;99.90;;;;;;5074756;28;20235;-69
2023/05/17 03:14:52;;;;;;;4.43;3.00;;;8.50;99.90;;;;;;5074628;28;20186;-69
2023/05/17 03:17:17;;;;;;;5.00;2.80;;;8.50;99.90;;;;;;5056292;28;20538;-69
2023/05/17 03:19:43;;;;;;;7.50;2.60;;;8.50;99.90;;;;;;5074393;28;20288;-70
2023/05/17 03:22:08;;;;;;;4.10;3.07;;;8.50;99.90;;;;;;5074038;28;20206;-69
2023/05/17 03:24:34;;;;;;;6.83;2.90;;;8.50;99.90;;;;;;5074324;28;20565;-69
2023/05/17 03:26:59;;;;;;;5.43;2.83;;;8.40;99.90;;;;;;5055895;28;20186;-70
2023/05/17 03:29:25;;;;;;;4.33;3.10;;;8.40;99.90;;;;;;5074233;28;20171;-69
2023/05/17 03:31:50;;;;;;;2.60;2.40;;;8.40;99.90;;;;;;5074011;28;20204;-70
2023/05/17 03:34:16;;;;;;;6.17;2.87;;;8.40;99.90;;;;;;5074002;28;20162;-69
2023/05/17 03:36:42;;;;;;;3.50;2.63;;;8.40;99.90;;;;;;5073904;28;20212;-69
2023/05/17 03:39:07;;;;;;;5.00;2.87;;;8.40;99.90;;;;;;5073566;28;20190;-69
2023/05/17 03:41:33;;;;;;;5.10;2.53;;;8.40;99.90;;;;;;5073853;28;20167;-69
2023/05/17 03:43:59;;;;;;;8.90;3.30;;;8.40;99.90;;;;;;5073834;28;20762;-70
2023/05/17 03:46:24;;;;;;;9.50;4.03;;;8.40;99.90;;;;;;5072940;28;20197;-69
2023/05/17 03:48:50;;;;;;;4.80;3.23;;;8.40;99.90;;;;;;5073590;28;20194;-69
2023/05/17 03:51:16;;;;;;;3.87;3.10;;;8.40;99.90;;;;;;5073572;28;20159;-69
2023/05/17 03:53:42;;;;;;;10.80;4.47;;;8.40;99.90;;;;;;5073443;28;20404;-69
2023/05/17 03:56:11;;;;;;;6.50;3.80;;;8.50;99.90;;;;;;5055588;28;20198;-70
2023/05/17 03:58:36;;;;;;;8.93;3.40;;;8.50;99.90;;;;;;5073146;28;20408;-69
2023/05/17 04:01:03;;;;;;;9.37;3.40;;;8.50;99.90;;;;;;5073495;28;20757;-69
2023/05/17 04:03:29;;;;;;;6.07;5.03;;;8.50;99.90;;;;;;5073318;28;20745;-69
2023/05/17 04:06:05;;;;;;;6.10;3.63;;;8.50;99.90;;;;;;5055284;28;20440;-69
2023/05/17 04:08:32;;;;;;;11.33;3.90;;;8.60;99.90;;;;;;5072838;28;20192;-71
2023/05/17 04:10:58;;;;;;;3.70;2.83;;;8.60;99.90;;;;;;5055488;28;20412;-67
2023/05/17 04:13:24;;;;;;;7.73;3.40;;;8.70;99.90;;;;;;5073114;28;20421;-68
2023/05/17 04:15:50;;;;;;;10.47;5.40;;;8.70;99.90;;;;;;5073130;28;20409;-68
2023/05/17 04:18:15;;;;;;;9.20;6.00;;;8.80;99.90;;;;;;5072774;28;20426;-68
2023/05/17 04:20:41;;;;;;;6.90;5.17;;;8.90;99.90;;;;;;5072866;28;20197;-68
2023/05/17 04:23:07;;;;;;;6.60;4.20;;;9.00;99.90;;;;;;5072999;28;20189;-68
2023/05/17 04:25:32;;;;;;;13.93;4.37;;;9.10;99.90;;;;;;5072878;28;20163;-68
2023/05/17 04:27:58;;;;;;;5.70;4.67;;;9.20;99.90;;;;;;5072469;28;20178;-68
2023/05/17 04:30:23;;;;;;;5.77;3.63;;;9.40;99.90;;;;;;5072740;28;20170;-68
2023/05/17 04:32:49;;;;;;;6.67;3.80;;;9.60;99.90;;;;;;5072741;28;20170;-67
2023/05/17 04:35:15;;;;;;;7.80;4.00;;;9.70;99.90;;;;;;5072652;28;20182;-68
2023/05/17 04:37:40;;;;;;;11.77;4.73;;;9.80;99.90;;;;;;5072356;28;20190;-68
2023/05/17 04:40:07;;;;;;;9.70;3.60;;;10.00;99.90;;;;;;5072575;28;20206;-68
2023/05/17 04:42:32;;;;;;;6.47;3.87;;;10.10;99.90;;;;;;5072481;28;20643;-68
2023/05/17 04:44:58;;;;;;;14.60;6.67;;;10.30;99.90;;;;;;5072518;28;20400;-68
2023/05/17 04:47:24;;;;;;;7.50;4.53;;;10.40;99.90;;;;;;5072092;28;20197;-68
2023/05/17 04:49:50;;;;;;;5.57;3.67;;;10.60;99.90;;;;;;5072367;28;20408;-68
2023/05/17 04:52:16;;;;;;;5.80;4.00;;;10.70;99.90;;;;;;5072434;28;20770;-68
2023/05/17 04:54:41;;;;;;;9.03;4.60;;;10.80;99.90;;;;;;5072390;28;20188;-68
2023/05/17 04:57:07;;;;;;;6.00;4.37;;;11.00;99.90;;;;;;5071830;28;20201;-68
2023/05/17 04:59:32;;;;;;;16.20;4.17;;;11.20;99.90;;;;;;5072333;28;20556;-68
2023/05/17 05:01:58;;;;;;;6.30;4.17;;;11.30;99.90;;;;;;5072315;28;20166;-68
2023/05/17 05:04:24;;;;;;;8.50;4.47;;;11.40;99.90;;;;;;5072267;28;20340;-68
2023/05/17 05:06:50;;;;;;;9.53;4.33;;;11.60;99.90;;;;;;5071749;28;20263;-68
2023/05/17 05:09:16;;;;;;;16.60;5.73;;;11.70;99.90;;;;;;5054244;28;20412;-68
2023/05/17 05:11:41;;;;;;;11.07;5.37;;;11.70;99.90;;;;;;5072092;28;20414;-68
2023/05/17 05:14:07;;;;;;;9.53;3.90;;;11.80;99.90;;;;;;5071986;28;20189;-68
2023/05/17 05:16:32;;;;;;;10.23;5.53;;;11.80;99.90;;;;;;5071945;28;20242;-68
2023/05/17 05:18:58;;;;;;;7.23;3.97;;;11.90;99.90;;;;;;5071708;28;20197;-68
2023/05/17 05:21:23;;;;;;;11.60;4.37;;;11.90;99.90;;;;;;5071965;28;20177;-68
2023/05/17 05:23:49;;;;;;;5.33;3.87;;;12.10;99.90;;;;;;5072096;28;20166;-68
2023/05/17 05:26:14;;;;;;;6.90;3.47;;;12.20;99.90;;;;;;5072020;28;20670;-68
2023/05/17 05:28:40;;;;;;;7.90;3.60;;;12.40;99.90;;;;;;5071674;28;20206;-68
2023/05/17 05:31:05;;;;;;;8.63;4.60;;;12.60;99.90;;;;;;5071826;28;20166;-69
2023/05/17 05:33:31;;;;;;;15.47;4.50;;;12.60;99.90;;;;;;5071793;28;20171;-68
2023/05/17 05:35:56;;;;;;;7.40;3.60;;;12.70;99.90;;;;;;5053865;28;20162;-68
2023/05/17 05:38:22;;;;;;;8.63;4.97;;;12.80;99.90;;;;;;5071576;28;20186;-69
2023/05/17 05:40:47;;;;;;;15.57;3.60;;;12.80;99.90;;;;;;5071823;28;20557;-69
2023/05/17 05:43:14;;;;;;;7.63;5.00;;;12.90;99.90;;;;;;5071831;28;20158;-69
2023/05/17 05:45:46;;;;;;;6.90;4.17;;;12.90;99.90;;;;;;5071852;28;20189;-69
2023/05/17 05:48:14;;;;;;;8.97;4.87;;;13.00;99.90;;;;;;5071466;28;20502;-69
2023/05/17 05:50:41;;;;;;;10.60;4.40;;;12.90;99.90;;;;;;5071604;28;20439;-68
2023/05/17 05:53:07;;;;;;;9.63;3.00;;;12.90;99.90;;;;;;5071673;28;20889;-68
2023/05/17 05:55:33;;;;;;;6.13;4.63;;;12.80;99.90;;;;;;5071656;28;20431;-69
2023/05/17 05:57:58;;;;;;;8.13;3.37;;;12.70;99.90;;;;;;5071248;28;20460;-69
2023/05/17 06:00:24;;;;;;;8.53;4.57;;;12.70;99.90;;;;;;5071780;28;20285;-68
2023/05/17 06:02:50;;;;;;;5.57;4.00;;;12.70;99.90;;;;;;5071505;28;20589;-69
2023/05/17 06:05:15;;;;;;;7.70;4.57;;;12.80;99.90;;;;;;5071777;28;20180;-68
2023/05/17 06:07:41;;;;;;;7.73;3.90;;;12.90;99.90;;;;;;5071422;28;20224;-68
2023/05/17 06:10:07;;;;;;;11.67;4.67;;;13.20;99.90;;;;;;5075414;28;20265;-68
2023/05/17 06:12:32;;;;;;;8.20;4.90;;;13.70;99.90;;;;;;5075241;28;20166;-69
2023/05/17 06:14:58;;;;;;;10.03;6.00;;;14.50;99.90;;;;;;5057362;28;20432;-68
2023/05/17 06:17:23;;;;;;;8.70;6.20;;;15.50;99.90;;;;;;5075093;28;20198;-68
2023/05/17 06:19:49;;;;;;;14.43;6.10;;;16.40;99.90;;;;;;5075143;28;20245;-69
2023/05/17 06:22:15;;;;;;;8.70;6.93;;;17.00;99.90;;;;;;5075147;28;20166;-69
2023/05/17 06:24:40;;;;;;;11.37;6.90;;;17.40;99.90;;;;;;5075093;28;20612;-68
2023/05/17 06:27:06;;;;;;;11.27;7.03;;;17.70;99.90;;;;;;5074707;28;20334;-69
2023/05/17 06:29:31;;;;;;;9.30;6.23;;;17.80;99.90;;;;;;5075037;28;20200;-69
2023/05/17 06:31:58;;;;;;;7.07;6.33;;;18.00;99.90;;;;;;5074929;28;20247;-68
2023/05/17 06:34:24;;;;;;;11.27;6.73;;;18.30;99.90;;;;;;5074918;28;20257;-69
2023/05/17 06:36:49;;;;;;;13.87;6.90;;;18.80;99.90;;;;;;5074703;28;20456;-69
2023/05/17 06:39:15;;;;;;;11.77;7.23;;;19.30;99.90;;;;;;5074688;28;20281;-69
2023/05/17 06:41:41;;;;;;;10.03;6.20;;;19.90;99.90;;;;;;5074408;28;20175;-65
2023/05/17 06:44:06;;;;;;;6.50;5.50;;;20.10;99.90;;;;;;5074530;28;20170;-65
2023/05/17 06:46:32;;;;;;;10.47;6.33;;;20.10;99.40;;;;;;5074347;28;20224;-65
2023/05/17 06:48:57;;;;;;;5.87;4.93;;;20.00;96.20;;;;;;5074280;28;20212;-65
2023/05/17 06:51:23;;;;;;;10.37;5.80;;;19.90;95.50;;;;;;5074429;28;20177;-66
2023/05/17 06:53:49;;;;;;;14.50;7.00;;;19.80;94.80;;;;;;5074490;28;20223;-66
2023/05/17 06:56:15;;;;;;;9.57;6.40;;;19.80;95.30;;;;;;5074357;28;20162;-65
2023/05/17 06:58:40;;;;;;;13.07;6.00;;;20.50;94.00;;;;;;5073954;28;20401;-65
2023/05/17 07:01:06;;;;;;;9.50;5.80;;;21.40;91.00;;;;;;5074171;28;20412;-65
2023/05/17 07:03:32;;;;;;;12.80;5.80;;;21.80;81.70;;;;;;5074173;28;20166;-67
2023/05/17 07:05:58;;;;;;;7.67;5.23;;;21.80;77.00;;;;;;5074184;28;20423;-68
2023/05/17 07:08:23;;;;;;;7.80;4.80;;;21.60;75.10;;;;;;5073788;28;20503;-68
2023/05/17 07:10:52;;;;;;;10.73;5.10;;;21.40;70.70;;;;;;5074056;28;20167;-69
2023/05/17 07:13:18;;;;;;;7.93;4.23;;;20.90;70.10;;;;;;5074044;28;20170;-68
2023/05/17 07:15:44;;;;;;;5.93;4.10;;;20.50;70.80;;;;;;5073915;28;20427;-68
2023/05/17 07:18:10;;;;;;;9.30;4.13;;;20.50;73.20;;;;;;5073586;28;20189;-67
2023/05/17 07:20:35;;;;;;;7.60;3.60;;;20.40;71.90;;;;;;5073479;28;20456;-68
2023/05/17 07:23:01;;;;;;;6.70;4.23;;;20.50;73.30;;;;;;5073862;28;20166;-69
2023/05/17 07:25:27;;;;;;;3.50;3.07;;;21.30;71.70;;;;;;5073828;28;20171;-69
2023/05/17 07:27:52;;;;;;;8.37;3.60;;;21.50;66.60;;;;;;5073374;28;20189;-69
2023/05/17 07:30:18;;;;;;;5.63;3.60;;;21.40;65.60;;;;;;5073641;28;20170;-69
2023/05/17 07:32:43;;;;;;;4.70;3.10;;;21.30;64.60;;;;;;5073660;28;20166;-69
2023/05/17 07:35:09;;;;;;;7.50;3.77;;;21.20;63.40;;;;;;5073645;28;20174;-69
2023/05/17 07:37:34;;;;;;;13.03;3.27;;;20.90;63.00;;;;;;5073241;28;20528;-68
2023/05/17 07:40:00;;;;;;;4.90;2.97;;;20.50;61.00;;;;;;5055566;28;20228;-68
2023/05/17 07:42:26;;;;;;;4.77;3.10;;;20.30;62.60;;;;;;5073544;28;20162;-68
2023/05/17 07:44:51;;;;;;;5.10;2.90;;;20.70;65.70;;;;;;5073327;28;20216;-68
2023/05/17 07:47:17;;;;;;;4.80;2.97;;;20.90;62.00;;;;;;5073042;28;20186;-68
2023/05/17 07:49:42;;;;;;;4.13;2.80;;;21.30;62.20;;;;;;5073245;28;20254;-67
2023/05/17 07:52:08;;;;;;;7.50;2.70;;;21.80;60.10;;;;;;5073316;28;20299;-69
2023/05/17 07:54:33;;;;;;;10.60;3.50;;;22.20;60.00;;;;;;5073296;28;20209;-68
2023/05/17 07:56:59;;;;;;;7.00;3.90;;;22.10;58.50;;;;;;5072976;28;20243;-67
2023/05/17 07:59:25;;;;;;;3.83;2.43;;;22.80;59.70;;;;;;5073104;28;20267;-68
2023/05/17 08:01:51;;;;;;;4.87;2.83;;;23.40;58.30;;;;;;5073072;28;20523;-69
2023/05/17 08:04:18;;;;;;;4.83;3.30;;;23.60;55.80;;;;;;5072946;28;20241;-68
2023/05/17 08:06:47;;;;;;;5.43;2.50;;;23.40;53.30;;;;;;5072981;28;20428;-68
2023/05/17 08:09:14;;;;;;;5.10;2.40;;;23.20;51.80;;;;;;5072753;28;20413;-68
2023/05/17 08:11:44;;;;;;;5.63;2.80;;;23.80;54.10;;;;;;5072969;28;20416;-69
2023/05/17 08:14:12;;;;;;;5.03;2.30;;;25.20;50.90;;;;;;5072768;28;20446;-69
2023/05/17 08:16:37;;;;;;;7.00;2.63;;;26.90;49.00;;;;;;5072658;28;20424;-69
2023/05/17 08:19:03;;;;;;;7.93;3.17;;;27.30;46.00;;;;;;5072414;28;20474;-69
2023/05/17 08:21:28;;;;;;;3.97;2.37;;;26.80;44.20;;;;;;5072778;28;20158;-70
2023/05/17 08:23:54;;;;;;;3.73;2.00;;;27.10;45.50;;;;;;5072678;28;20249;-66
2023/05/17 08:26:19;;;;;;;3.50;2.47;;;29.20;43.80;;;;;;5069574;28;20670;-66
2023/05/17 08:28:45;;;;;;;3.13;2.43;;;31.80;40.40;;;;;;5072123;28;20181;-66
2023/05/17 08:31:11;;;;;;;4.70;2.20;;;34.40;36.60;;;;;;5071826;28;20163;-68
2023/05/17 08:33:36;;;;;;;4.00;2.57;;;36.90;32.90;;;;;;5072535;28;20689;-69
2023/05/17 08:36:06;;;;;;;3.10;1.97;;;38.60;28.80;;;;;;5072424;28;20166;-68
2023/05/17 08:38:33;;;;;;;3.50;3.03;;;40.30;27.40;;;;;;5072077;28;20174;-69
2023/05/17 08:40:59;;;;;;;3.20;2.90;;;41.80;26.10;;;;;;5072312;28;20426;-67
2023/05/17 08:43:25;;;;;;;3.73;3.33;;;43.10;24.10;;;;;;5072328;28;20367;-67
2023/05/17 08:45:51;;;;;;;11.30;2.50;;;43.70;22.00;;;;;;5072343;28;20428;-68
2023/05/17 08:48:18;;;;;;;3.33;2.40;;;44.40;22.00;;;;;;5071973;28;20189;-67
2023/05/17 08:50:46;;;;;;;4.43;2.70;;;45.20;21.50;;;;;;5072287;28;20410;-67
2023/05/17 08:53:12;;;;;;;2.30;2.10;;;45.90;21.50;;;;;;5072122;28;20378;-67
2023/05/17 08:55:41;;;;;;;2.70;2.23;;;46.00;20.50;;;;;;5072201;28;20404;-67
2023/05/17 08:58:07;;;;;;;4.73;2.43;;;44.40;19.80;;;;;;5053798;28;20411;-67
2023/05/17 09:00:34;;;;;;;3.70;2.40;;;42.20;20.30;;;;;;5071812;28;20861;-66
2023/05/17 09:03:00;;;;;;;2.53;2.33;;;40.50;21.30;;;;;;5072161;28;20945;-66
2023/05/17 09:05:26;;;;;;;3.33;2.60;;;39.00;21.60;;;;;;5072145;28;20480;-66
2023/05/17 09:07:53;;;;;;;2.90;2.20;;;37.30;22.20;;;;;;5071553;28;20182;-68
2023/05/17 09:10:18;;;;;;;5.13;2.20;;;35.80;23.00;;;;;;5071967;28;20400;-66
2023/05/17 09:12:46;;;;;;;6.10;2.23;;;34.50;23.80;;;;;;5071482;28;20916;-66
2023/05/17 09:15:16;;;;;;;3.57;2.17;;;33.30;24.40;;;;;;5071913;28;20177;-66
2023/05/17 09:17:42;;;;;;;2.90;1.60;;;32.40;25.00;;;;;;5071674;28;20503;-67
2023/05/17 09:20:08;;;;;;;6.23;2.10;;;32.60;25.70;;;;;;5071821;28;20547;-67
2023/05/17 09:22:38;;;;;;;3.80;2.33;;;34.50;25.90;;;;;;5071868;28;20159;-67
2023/05/17 09:25:04;;;;;;;7.77;2.80;;;36.20;24.80;;;;;;5071814;28;20412;-67
2023/05/17 09:27:32;;;;;;;2.47;2.27;;;38.40;23.60;;;;;;5071395;28;20420;-68
2023/05/17 09:29:57;;;;;;;4.13;2.37;;;40.70;22.70;;;;;;5071814;28;20371;-68
2023/05/17 09:32:27;;;;;;;3.30;2.30;;;42.60;21.70;;;;;;5071769;28;20461;-68
2023/05/17 09:34:55;;;;;;;4.13;2.33;;;44.30;21.10;;;;;;5057066;28;20174;-68
2023/05/17 09:37:21;;;;;;;4.23;2.93;;;45.70;20.90;;;;;;5051418;28;20395;-68
2023/05/17 09:39:47;;;;;;;4.37;2.83;;;47.00;19.80;;;;;;5051696;28;20540;-68
2023/05/17 09:42:15;;;;;;;3.00;2.10;;;48.00;19.80;;;;;;5052772;28;20404;-68
2023/05/17 09:45:00;;;;;;;4.37;2.50;;;48.90;19.10;;;;;;5055731;28;20162;-68
2023/05/17 09:47:27;;;;;;;4.30;2.20;;;49.70;18.30;;;;;;5055453;28;20798;-68
2023/05/17 09:49:59;;;;;;;3.00;2.23;;;50.40;18.50;;;;;;5055578;28;20932;-68
2023/05/17 09:52:30;;;;;;;5.40;2.80;;;51.30;18.00;;;;;;5055610;28;20408;-68
2023/05/17 09:54:57;;;;;;;4.20;2.53;;;51.90;17.70;;;;;;5055605;28;20479;-68
2023/05/17 09:57:25;;;;;;;3.33;2.87;;;52.20;17.00;;;;;;5055248;28;20391;-68
2023/05/17 09:59:56;;;;;;;5.83;3.10;;;52.30;17.00;;;;;;5055358;28;20427;-68
2023/05/17 10:02:27;;;;;;;7.63;3.20;;;52.50;16.80;;;;;;5055419;28;20404;-68
2023/05/17 10:04:56;;;;;;;3.33;3.03;;;51.20;16.40;;;;;;5055413;28;20376;-68
2023/05/17 10:07:24;;;;;;;3.07;2.77;;;48.40;16.50;;;;;;5055042;28;20396;-68
2023/05/17 10:09:52;;;;;;;5.70;3.70;;;46.10;17.10;;;;;;5055283;28;20463;-68
2023/05/17 10:12:21;;;;;;;5.23;2.37;;;44.30;17.80;;;;;;5055231;28;20372;-68
2023/05/17 10:14:47;;;;;;;3.77;3.30;;;42.70;18.20;;;;;;5054964;28;20520;-67
2023/05/17 10:17:13;;;;;;;3.37;2.43;;;41.10;18.40;;;;;;5054784;28;20420;-68
2023/05/17 10:19:40;;;;;;;4.50;2.67;;;39.30;19.00;;;;;;5055019;28;20201;-67
2023/05/17 10:22:06;;;;;;;3.60;2.63;;;37.60;19.70;;;;;;5055044;28;20450;-67
2023/05/17 10:24:35;;;;;;;5.03;2.97;;;36.60;20.40;;;;;;5054997;28;20450;-68
2023/05/17 10:27:02;;;;;;;3.13;2.50;;;37.60;21.80;;;;;;5054592;28;20421;-68
2023/05/17 10:29:30;;;;;;;2.53;1.95;;;40.00;21.60;;;;;;5053770;28;20482;-68
2023/05/17 10:31:57;;;;;;;3.30;2.10;;;40.00;20.30;;;;;;5054869;28;20167;-68
2023/05/17 10:34:26;;;;;;;2.17;1.97;;;38.60;19.80;;;;;;5054814;28;20410;-68
2023/05/17 10:36:52;;;;;;;4.40;2.67;;;37.30;20.50;;;;;;5054433;28;20428;-68
2023/05/17 10:39:20;;;;;;;3.30;2.10;;;37.50;21.40;;;;;;5054594;28;20447;-68
2023/05/17 10:41:50;;;;;;;3.70;2.60;;;37.80;21.70;;;;;;5054725;28;20400;-68
2023/05/17 10:44:16;;;;;;;3.67;2.80;;;38.30;21.40;;;;;;5054465;28;20488;-68
2023/05/17 10:46:54;;;;;;;3.13;2.50;;;38.10;21.00;;;;;;5054264;28;20877;-67
2023/05/17 10:49:19;;;;;;;4.00;2.40;;;38.00;21.30;;;;;;5054493;28;20454;-66
2023/05/17 10:51:45;;;;;;;5.00;2.23;;;39.50;21.50;;;;;;5054491;28;20401;-67
2023/05/17 10:54:12;;;;;;;4.23;2.20;;;42.00;20.90;;;;;;5053740;28;20254;-67
2023/05/17 10:56:47;;;;;;;2.63;2.23;;;43.20;19.70;;;;;;5054293;28;20213;-68
2023/05/17 10:59:17;;;;;;;3.10;2.33;;;43.30;19.20;;;;;;5054086;28;20514;-67
2023/05/17 11:01:58;;;;;;;3.30;2.30;;;45.00;19.30;;;;;;5054357;28;20460;-68
2023/05/17 11:04:36;;;;;;;3.30;2.53;;;47.30;19.10;;;;;;5054279;28;20390;-68
2023/05/17 11:07:17;;;;;;;3.30;2.37;;;48.50;17.60;;;;;;5053824;28;20419;-68
2023/05/17 11:09:45;;;;;;;3.17;2.30;;;46.90;16.80;;;;;;5053869;28;20501;-68
2023/05/17 11:12:14;;;;;;;4.40;2.20;;;44.60;17.20;;;;;;5056733;28;20919;-68
2023/05/17 11:14:52;;;;;;;3.30;1.83;;;43.60;17.80;;;;;;5036091;28;20858;-68
2023/05/17 11:17:26;;;;;;;3.30;2.00;;;42.30;18.10;;;;;;5035681;28;20412;-68
2023/05/17 11:19:57;;;;;;;7.57;3.20;;;41.80;18.90;;;;;;5053930;28;20456;-68
2023/05/17 11:22:24;;;;;;;3.53;2.23;;;43.30;19.30;;;;;;5053909;28;20394;-68
2023/05/17 11:24:52;;;;;;;2.80;1.97;;;45.20;18.30;;;;;;5053845;28;20850;-68
2023/05/17 11:27:19;;;;;;;2.90;2.10;;;46.80;18.20;;;;;;5053387;28;20403;-68
2023/05/17 11:29:48;;;;;;;2.37;2.17;;;47.70;17.60;;;;;;5053695;28;20433;-69
2023/05/17 11:32:13;;;;;;;6.00;2.50;;;48.90;17.50;;;;;;5053750;28;20380;-69
2023/05/17 11:34:39;;;;;;;5.80;2.30;;;48.30;16.40;;;;;;5053713;28;20925;-69
2023/05/17 11:37:09;;;;;;;2.20;2.00;;;48.20;16.70;;;;;;5068875;28;20197;-68
2023/05/17 11:39:35;;;;;;;2.83;2.30;;;49.00;16.70;;;;;;5073620;28;20607;-68
2023/05/17 11:42:01;;;;;;;2.20;2.00;;;49.60;16.30;;;;;;5073166;28;20397;-67
2023/05/17 11:44:31;;;;;;;5.33;2.57;;;49.80;16.40;;;;;;5073552;28;20220;-68
2023/05/17 11:47:04;;;;;;;3.03;2.17;;;50.60;16.70;;;;;;5072935;28;20236;-67
2023/05/17 11:49:35;;;;;;;3.10;2.37;;;50.50;16.10;;;;;;5073414;28;20379;-68
2023/05/17 11:52:01;;;;;;;5.23;2.30;;;48.70;16.20;;;;;;5073213;28;20388;-68
2023/05/17 11:54:28;;;;;;;3.73;2.10;;;46.00;16.20;;;;;;5073121;28;20404;-67
2023/05/17 11:56:54;;;;;;;3.80;1.80;;;43.20;17.10;;;;;;5072589;28;20221;-67
2023/05/17 11:59:20;;;;;;;1.80;1.60;;;40.60;17.80;;;;;;5073026;28;20847;-67
2023/05/17 12:01:48;;;;;;;4.50;2.43;;;39.40;19.20;;;;;;5073124;28;20730;-67
2023/05/17 12:04:21;;;;;;;2.60;2.10;;;40.10;19.60;;;;;;5073020;28;20828;-67
2023/05/17 12:06:47;;;;;;;3.77;2.70;;;41.90;19.50;;;;;;5072002;28;20423;-66
2023/05/17 12:09:16;;;;;;;3.00;2.07;;;43.80;18.80;;;;;;5072955;28;21093;-67
2023/05/17 12:11:42;;;;;;;3.83;2.33;;;45.50;18.50;;;;;;5072915;28;20162;-67
2023/05/17 12:14:07;;;;;;;3.00;2.60;;;47.00;17.80;;;;;;5072595;28;20448;-70
2023/05/17 12:16:35;;;;;;;7.73;2.30;;;48.00;17.20;;;;;;5072729;28;20620;-71
2023/05/17 12:19:01;;;;;;;3.27;2.60;;;48.90;17.10;;;;;;5054431;28;20174;-70
2023/05/17 12:21:27;;;;;;;6.13;2.50;;;49.60;16.70;;;;;;5072617;28;20766;-70
2023/05/17 12:23:52;;;;;;;5.17;2.53;;;50.00;16.70;;;;;;5072433;28;20168;-70
2023/05/17 12:26:20;;;;;;;3.20;2.40;;;50.20;16.60;;;;;;5072481;28;20241;-70
2023/05/17 12:28:59;;;;;;;2.43;2.23;;;50.50;16.70;;;;;;5054331;28;20643;-71
2023/05/17 12:31:32;;;;;;;5.40;2.57;;;50.80;16.50;;;;;;5072556;28;20400;-70
2023/05/17 12:34:00;;;;;;;2.57;2.07;;;50.80;15.90;;;;;;5072623;28;20403;-71
2023/05/17 12:36:28;;;;;;;2.40;2.20;;;50.80;15.90;;;;;;5072385;28;20375;-70
2023/05/17 12:38:54;;;;;;;2.60;1.90;;;50.80;15.80;;;;;;5072032;28;20401;-70
2023/05/17 12:41:21;;;;;;;2.13;1.90;;;50.50;15.60;;;;;;5072300;28;20500;-70
2023/05/17 12:43:48;;;;;;;2.97;2.10;;;50.40;15.80;;;;;;5072333;28;20375;-70
2023/05/17 12:46:19;;;;;;;3.10;2.20;;;50.30;16.10;;;;;;5072268;28;20390;-70
2023/05/17 12:48:46;;;;;;;2.10;2.00;;;50.10;16.00;;;;;;5072021;28;20375;-70
2023/05/17 12:51:16;;;;;;;3.10;2.13;;;48.70;15.10;;;;;;5072172;28;20449;-71